Time;durP1;ratioP1;P1;durP2;ratioP2;P2;SDS_P1;SDS_P2;PMS_P1;PMS_P2;Temp;Humidity;BMP_temperature;BMP_pressure;BME280_temperature;BME280_humidity;BME280_pressure;Samples;Min_cycle;Max_cycle;Signal;HPM_P1;HPM_P2
2022/07/21 00:01:48;;;;;;;27.40;16.05;;;20.20;99.90;;;;;;5090506;28;20044;-75
2022/07/21 00:04:15;;;;;;;27.30;16.55;;;20.20;99.90;;;;;;5075044;28;20119;-75
2022/07/21 00:06:42;;;;;;;28.52;15.70;;;20.20;99.90;;;;;;5073878;28;20053;-75
2022/07/21 00:09:08;;;;;;;28.50;16.30;;;20.20;99.90;;;;;;5074826;28;20112;-74
2022/07/21 00:11:34;;;;;;;28.30;15.10;;;20.20;99.90;;;;;;5074047;28;20052;-75
2022/07/21 00:14:00;;;;;;;27.65;14.65;;;20.20;99.90;;;;;;5090665;28;20456;-75
2022/07/21 00:16:25;;;;;;;27.48;15.75;;;20.10;99.90;;;;;;5074719;28;20044;-74
2022/07/21 00:18:51;;;;;;;26.08;15.18;;;20.10;99.90;;;;;;5090278;28;20048;-74
2022/07/21 00:21:17;;;;;;;28.63;16.10;;;20.10;99.90;;;;;;5074470;28;20076;-75
2022/07/21 00:23:42;;;;;;;36.78;17.55;;;20.10;99.90;;;;;;5073327;28;20053;-74
2022/07/21 00:26:08;;;;;;;36.50;20.42;;;20.10;99.90;;;;;;5074622;28;20052;-74
2022/07/21 00:28:34;;;;;;;31.92;17.92;;;20.10;99.90;;;;;;5090246;28;20133;-74
2022/07/21 00:30:59;;;;;;;31.58;17.58;;;20.10;99.90;;;;;;5074516;28;20048;-74
2022/07/21 00:33:25;;;;;;;31.38;18.02;;;20.10;99.90;;;;;;5074361;28;20052;-74
2022/07/21 00:35:51;;;;;;;31.17;19.15;;;20.10;99.90;;;;;;5089647;28;20052;-74
2022/07/21 00:38:16;;;;;;;35.67;19.63;;;20.10;99.90;;;;;;5089532;28;20048;-74
2022/07/21 00:40:42;;;;;;;30.08;18.85;;;20.00;99.90;;;;;;5074378;28;20036;-75
2022/07/21 00:43:11;;;;;;;38.17;21.17;;;20.00;99.90;;;;;;5073029;28;20400;-75
2022/07/21 00:45:37;;;;;;;40.45;22.85;;;20.10;99.90;;;;;;5074075;28;20076;-74
2022/07/21 00:48:03;;;;;;;34.67;21.73;;;20.00;99.90;;;;;;5074078;28;20110;-75
2022/07/21 00:50:31;;;;;;;36.38;21.77;;;20.00;99.90;;;;;;5089713;28;20387;-74
2022/07/21 00:52:57;;;;;;;37.60;20.02;;;20.00;99.90;;;;;;5074078;28;20434;-74
2022/07/21 00:55:23;;;;;;;36.33;22.27;;;20.00;99.90;;;;;;5074111;28;20539;-74
2022/07/21 00:57:49;;;;;;;42.97;22.27;;;20.00;99.90;;;;;;5089529;28;20406;-74
2022/07/21 01:00:22;;;;;;;42.20;22.80;;;20.00;99.90;;;;;;5074081;28;20115;-75
2022/07/21 01:02:48;;;;;;;38.40;21.63;;;20.00;99.90;;;;;;5073954;28;20048;-74
2022/07/21 01:05:15;;;;;;;30.13;21.25;;;20.10;99.90;;;;;;5073991;28;20041;-75
2022/07/21 01:07:46;;;;;;;40.30;22.60;;;20.00;99.90;;;;;;5072934;28;20044;-74
2022/07/21 01:10:14;;;;;;;41.38;22.35;;;20.00;99.90;;;;;;5073901;28;20047;-74
2022/07/21 01:12:40;;;;;;;41.08;20.67;;;20.00;99.90;;;;;;5073865;28;20036;-74
2022/07/21 01:15:08;;;;;;;34.25;20.75;;;20.00;99.90;;;;;;5072713;28;20392;-74
2022/07/21 01:17:33;;;;;;;38.53;22.23;;;20.00;99.90;;;;;;5073690;28;20107;-74
2022/07/21 01:20:05;;;;;;;39.08;23.02;;;20.00;99.90;;;;;;5073692;28;20444;-74
2022/07/21 01:22:36;;;;;;;43.75;24.15;;;20.00;99.90;;;;;;5073426;28;20057;-74
2022/07/21 01:25:03;;;;;;;42.40;25.65;;;20.00;99.90;;;;;;5072574;28;20091;-74
2022/07/21 01:27:28;;;;;;;42.80;24.55;;;20.00;99.90;;;;;;5073709;28;20044;-74
2022/07/21 01:29:55;;;;;;;37.17;23.50;;;20.00;99.90;;;;;;5072564;28;20143;-74
2022/07/21 01:32:21;;;;;;;40.08;24.35;;;20.00;99.90;;;;;;5072431;28;20076;-74
2022/07/21 01:34:47;;;;;;;44.72;25.85;;;20.00;99.90;;;;;;5072592;28;20437;-74
2022/07/21 01:37:13;;;;;;;48.70;26.85;;;20.00;99.90;;;;;;5072457;28;20124;-75
2022/07/21 01:42:23;;;;;;;45.38;26.63;;;19.90;99.90;;;;;;5073790;28;20495;-74
2022/07/21 01:44:49;;;;;;;51.80;28.08;;;19.80;99.90;;;;;;5073367;28;20051;-74
2022/07/21 01:47:17;;;;;;;53.92;29.00;;;19.70;99.90;;;;;;5073738;28;20044;-74
2022/07/21 01:49:44;;;;;;;58.05;28.27;;;19.70;99.90;;;;;;5077542;28;20480;-74
2022/07/21 01:52:09;;;;;;;59.78;30.33;;;19.70;99.90;;;;;;5077564;28;20052;-73
2022/07/21 01:54:35;;;;;;;54.42;30.52;;;19.60;99.90;;;;;;5092944;28;20040;-73
2022/07/21 01:57:01;;;;;;;56.97;30.73;;;19.50;99.90;;;;;;5077436;28;20052;-74
2022/07/21 01:59:27;;;;;;;52.55;31.13;;;19.60;99.90;;;;;;5077401;28;20048;-74
2022/07/21 02:01:53;;;;;;;51.50;29.63;;;19.60;99.90;;;;;;5077399;28;20094;-74
2022/07/21 02:04:18;;;;;;;51.05;30.63;;;19.60;99.90;;;;;;5077027;28;20484;-74
2022/07/21 02:06:44;;;;;;;52.50;29.95;;;19.60;99.90;;;;;;5075788;28;20105;-74
2022/07/21 02:09:10;;;;;;;55.90;30.92;;;19.60;99.90;;;;;;5077284;28;20045;-74
2022/07/21 02:11:37;;;;;;;59.17;33.53;;;19.60;99.90;;;;;;5077258;28;20044;-74
2022/07/21 02:14:03;;;;;;;62.92;33.90;;;19.60;99.90;;;;;;5076060;28;20087;-74
2022/07/21 02:16:28;;;;;;;58.70;32.95;;;19.50;99.90;;;;;;5077063;28;20072;-74
2022/07/21 02:18:55;;;;;;;60.30;35.42;;;19.60;99.90;;;;;;5092863;28;20101;-74
2022/07/21 02:21:21;;;;;;;57.10;33.78;;;19.50;99.90;;;;;;5076559;28;20045;-74
2022/07/21 02:23:47;;;;;;;61.92;36.00;;;19.50;99.90;;;;;;5092481;28;20128;-74
2022/07/21 02:26:13;;;;;;;68.28;36.30;;;19.60;99.90;;;;;;5076848;28;20044;-73
2022/07/21 02:28:39;;;;;;;57.17;31.65;;;19.50;99.90;;;;;;5075523;28;20048;-74
2022/07/21 02:31:05;;;;;;;56.53;32.38;;;19.50;99.90;;;;;;5076831;28;20037;-73
2022/07/21 02:33:31;;;;;;;54.28;32.17;;;19.50;99.90;;;;;;5076764;28;20048;-74
2022/07/21 02:35:57;;;;;;;53.00;32.47;;;19.50;99.90;;;;;;5076529;28;20048;-74
2022/07/21 02:38:23;;;;;;;58.00;31.00;;;19.50;99.90;;;;;;5076736;28;20475;-73
2022/07/21 02:40:48;;;;;;;52.35;30.90;;;19.50;99.90;;;;;;5076623;28;20063;-74
2022/07/21 02:43:14;;;;;;;53.00;30.70;;;19.50;99.90;;;;;;5075559;28;20043;-73
2022/07/21 02:45:41;;;;;;;56.45;30.65;;;19.50;99.90;;;;;;5075051;28;20267;-73
2022/07/21 02:48:09;;;;;;;58.47;30.77;;;19.50;99.90;;;;;;5076450;28;20127;-74
2022/07/21 02:50:37;;;;;;;54.63;31.52;;;19.50;99.90;;;;;;5076358;28;20045;-73
2022/07/21 02:53:08;;;;;;;52.45;31.23;;;19.40;99.90;;;;;;5091949;28;20530;-74
2022/07/21 02:55:35;;;;;;;50.80;31.00;;;19.40;99.90;;;;;;5076424;28;20045;-73
2022/07/21 02:58:18;;;;;;;54.63;29.08;;;19.40;99.90;;;;;;5076186;28;20372;-74
2022/07/21 03:00:48;;;;;;;59.60;31.27;;;19.40;99.90;;;;;;5074088;28;20052;-73
2022/07/21 03:03:14;;;;;;;63.08;32.03;;;19.40;99.90;;;;;;5076257;28;20049;-74
2022/07/21 03:05:40;;;;;;;51.20;29.27;;;19.40;99.90;;;;;;5075941;28;20051;-74
2022/07/21 03:08:07;;;;;;;50.25;28.75;;;19.40;99.90;;;;;;5076070;28;20037;-73
2022/07/21 03:10:33;;;;;;;49.45;29.15;;;19.40;99.90;;;;;;5076151;28;20056;-74
2022/07/21 03:12:59;;;;;;;51.25;31.70;;;19.40;99.90;;;;;;5076009;28;20037;-74
2022/07/21 03:15:25;;;;;;;55.03;31.90;;;19.40;99.90;;;;;;5075821;28;20051;-74
2022/07/21 03:17:52;;;;;;;54.40;31.40;;;19.40;99.90;;;;;;5075689;28;20479;-74
2022/07/21 03:20:18;;;;;;;58.45;31.98;;;19.40;99.90;;;;;;5074851;28;20080;-74
2022/07/21 03:22:44;;;;;;;53.20;33.10;;;19.40;99.90;;;;;;5075476;28;20201;-73
2022/07/21 03:25:09;;;;;;;53.00;32.83;;;19.40;99.90;;;;;;5075816;28;20392;-73
2022/07/21 03:27:36;;;;;;;54.22;32.33;;;19.40;99.90;;;;;;5075699;28;20064;-73
2022/07/21 03:30:07;;;;;;;51.60;33.10;;;19.40;99.90;;;;;;5075545;28;20059;-73
2022/07/21 03:32:33;;;;;;;54.30;32.08;;;19.40;99.90;;;;;;5075727;28;20057;-73
2022/07/21 03:34:59;;;;;;;58.08;31.75;;;19.40;99.90;;;;;;5075709;28;20080;-74
2022/07/21 03:37:25;;;;;;;54.35;32.40;;;19.30;99.90;;;;;;5075554;28;20045;-74
2022/07/21 03:39:51;;;;;;;54.47;32.60;;;19.40;99.90;;;;;;5075561;28;20052;-74
2022/07/21 03:42:16;;;;;;;50.40;31.55;;;19.30;99.90;;;;;;5075442;28;20094;-74
2022/07/21 03:44:42;;;;;;;51.50;31.05;;;19.30;99.90;;;;;;5075081;28;20044;-74
2022/07/21 03:47:08;;;;;;;46.28;29.27;;;19.30;99.90;;;;;;5090329;28;20132;-74
2022/07/21 03:49:33;;;;;;;53.10;32.42;;;19.40;99.90;;;;;;5074157;28;20045;-74
2022/07/21 03:51:59;;;;;;;51.13;31.65;;;19.40;99.90;;;;;;5072315;28;20044;-74
2022/07/21 03:54:24;;;;;;;48.72;29.45;;;19.40;99.90;;;;;;5075185;28;20041;-74
2022/07/21 03:56:50;;;;;;;53.08;32.10;;;19.40;99.90;;;;;;5075031;28;20047;-74
2022/07/21 03:59:17;;;;;;;57.92;33.95;;;19.40;99.90;;;;;;5074800;28;20044;-74
2022/07/21 04:01:43;;;;;;;51.45;32.53;;;19.40;99.90;;;;;;5072417;28;20041;-74
2022/07/21 04:04:08;;;;;;;47.85;31.75;;;19.40;99.90;;;;;;5073864;28;20048;-74
2022/07/21 04:06:34;;;;;;;50.28;31.17;;;19.40;99.90;;;;;;5073866;28;20109;-74
2022/07/21 04:09:00;;;;;;;47.65;30.35;;;19.40;99.90;;;;;;5073736;28;20040;-74
2022/07/21 04:11:25;;;;;;;47.45;30.80;;;19.40;99.90;;;;;;5072395;28;20048;-74
2022/07/21 04:13:51;;;;;;;52.15;32.83;;;19.30;99.90;;;;;;5074753;28;20051;-74
2022/07/21 04:16:17;;;;;;;57.05;32.60;;;19.30;99.90;;;;;;5090429;28;20052;-74
2022/07/21 04:18:42;;;;;;;52.25;33.55;;;19.30;99.90;;;;;;5074843;28;20047;-74
2022/07/21 04:21:08;;;;;;;55.28;33.70;;;19.20;99.90;;;;;;5074488;28;20040;-74
2022/07/21 04:23:33;;;;;;;53.05;34.75;;;19.30;99.90;;;;;;5089870;28;20052;-74
2022/07/21 04:25:59;;;;;;;60.03;35.47;;;19.30;99.90;;;;;;5074311;28;20132;-74
2022/07/21 04:28:25;;;;;;;56.05;32.65;;;19.20;99.90;;;;;;5089941;28;20534;-74
2022/07/21 04:30:50;;;;;;;52.85;32.20;;;19.20;99.90;;;;;;5074490;28;20044;-74
2022/07/21 04:33:16;;;;;;;54.25;33.45;;;19.10;99.90;;;;;;5072978;28;20066;-74
2022/07/21 04:35:42;;;;;;;52.70;32.65;;;19.20;99.90;;;;;;5074437;28;20072;-74
2022/07/21 04:38:10;;;;;;;52.03;34.60;;;19.20;99.90;;;;;;5089981;28;20044;-74
2022/07/21 04:40:36;;;;;;;56.17;34.70;;;19.20;99.90;;;;;;5073053;28;20044;-74
2022/07/21 04:43:02;;;;;;;54.97;33.08;;;19.20;99.90;;;;;;5073983;28;20044;-74
2022/07/21 04:45:27;;;;;;;51.80;33.80;;;19.20;99.90;;;;;;5073969;28;20056;-74
2022/07/21 04:47:55;;;;;;;49.13;32.45;;;19.20;99.90;;;;;;5074311;28;20117;-74
2022/07/21 04:50:24;;;;;;;45.92;28.70;;;19.10;99.90;;;;;;5074149;28;20032;-74
2022/07/21 04:52:50;;;;;;;54.67;33.35;;;19.20;99.90;;;;;;5072884;28;20044;-74
2022/07/21 04:55:16;;;;;;;50.85;31.13;;;19.20;99.90;;;;;;5074055;28;20040;-74
2022/07/21 04:57:46;;;;;;;54.70;32.28;;;19.10;99.90;;;;;;5073988;28;20040;-74
2022/07/21 05:00:15;;;;;;;47.08;31.38;;;19.20;99.90;;;;;;5089467;28;20105;-74
2022/07/21 05:02:42;;;;;;;54.45;32.88;;;19.20;99.90;;;;;;5072683;28;20606;-74
2022/07/21 05:05:08;;;;;;;47.53;31.23;;;19.10;99.90;;;;;;5073888;28;20044;-74
2022/07/21 05:07:34;;;;;;;54.17;32.47;;;19.20;99.90;;;;;;5073669;28;20067;-74
2022/07/21 05:10:03;;;;;;;51.40;30.45;;;19.20;99.90;;;;;;5073964;28;20480;-74
2022/07/21 05:12:28;;;;;;;51.53;32.85;;;19.20;99.90;;;;;;5073578;28;20059;-74
2022/07/21 05:14:54;;;;;;;56.67;33.42;;;19.20;99.90;;;;;;5073819;28;20040;-74
2022/07/21 05:17:19;;;;;;;45.78;30.80;;;19.20;99.90;;;;;;5072586;28;20044;-74
2022/07/21 05:19:49;;;;;;;45.92;30.02;;;19.20;99.90;;;;;;5073757;28;20039;-74
2022/07/21 05:22:18;;;;;;;51.58;33.00;;;19.20;99.90;;;;;;5072815;28;20478;-74
2022/07/21 05:24:44;;;;;;;50.72;31.55;;;19.20;99.90;;;;;;5073671;28;20044;-74
2022/07/21 05:27:09;;;;;;;52.50;33.58;;;19.10;99.90;;;;;;5073588;28;20040;-74
2022/07/21 05:29:35;;;;;;;54.22;35.22;;;19.20;99.90;;;;;;5073694;28;20047;-74
2022/07/21 05:32:01;;;;;;;49.67;33.20;;;19.10;99.90;;;;;;5073786;28;20403;-74
2022/07/21 05:34:26;;;;;;;57.08;35.58;;;19.10;99.90;;;;;;5073626;28;20044;-74
2022/07/21 05:36:53;;;;;;;54.17;33.72;;;19.20;99.90;;;;;;5073161;28;20373;-74
2022/07/21 05:39:19;;;;;;;56.17;32.80;;;19.20;99.90;;;;;;5073559;28;20036;-74
2022/07/21 05:41:44;;;;;;;51.17;32.33;;;19.20;99.90;;;;;;5073526;28;20061;-74
2022/07/21 05:44:10;;;;;;;56.63;35.20;;;19.20;99.90;;;;;;5073468;28;20044;-74
2022/07/21 05:46:36;;;;;;;52.53;33.63;;;19.20;99.90;;;;;;5089231;28;20055;-74
2022/07/21 05:49:02;;;;;;;51.25;33.28;;;19.20;99.90;;;;;;5073432;28;20040;-74
2022/07/21 05:51:27;;;;;;;49.78;33.50;;;19.20;99.90;;;;;;5072084;28;20048;-74
2022/07/21 05:53:53;;;;;;;54.13;33.47;;;19.20;99.90;;;;;;5073175;28;20159;-74
2022/07/21 05:56:19;;;;;;;53.22;34.40;;;19.30;99.90;;;;;;5071970;28;20047;-74
2022/07/21 05:58:44;;;;;;;44.97;30.52;;;19.30;99.90;;;;;;5073121;28;20128;-74
2022/07/21 06:01:13;;;;;;;51.22;31.42;;;19.30;99.90;;;;;;5073433;28;20033;-74
2022/07/21 06:03:50;;;;;;;44.83;31.55;;;19.40;99.90;;;;;;5073033;28;20498;-74
2022/07/21 06:06:17;;;;;;;47.33;31.73;;;19.40;99.90;;;;;;5088759;28;20153;-74
2022/07/21 06:08:45;;;;;;;44.63;31.08;;;19.40;99.90;;;;;;5072026;28;20048;-74
2022/07/21 06:11:14;;;;;;;43.63;30.23;;;19.40;99.90;;;;;;5073172;28;20150;-74
2022/07/21 06:13:40;;;;;;;46.10;29.40;;;19.40;99.90;;;;;;5072888;28;20427;-74
2022/07/21 06:16:07;;;;;;;43.05;29.60;;;19.40;99.90;;;;;;5071765;28;20122;-74
2022/07/21 06:18:32;;;;;;;44.42;29.40;;;19.40;99.90;;;;;;5073129;28;20052;-74
2022/07/21 06:20:58;;;;;;;43.40;30.30;;;19.50;99.90;;;;;;5088805;28;20505;-74
2022/07/21 06:23:24;;;;;;;42.40;30.15;;;19.50;99.90;;;;;;5072728;28;20060;-74
2022/07/21 06:25:51;;;;;;;42.50;29.38;;;19.50;99.90;;;;;;5073147;28;20036;-74
2022/07/21 06:28:17;;;;;;;40.72;28.80;;;19.40;99.90;;;;;;5073137;28;20090;-74
2022/07/21 06:30:43;;;;;;;45.47;30.33;;;19.50;99.90;;;;;;5072807;28;20045;-74
2022/07/21 06:33:09;;;;;;;40.17;29.42;;;19.50;99.90;;;;;;5072760;28;20048;-74
2022/07/21 06:35:35;;;;;;;41.85;29.17;;;19.40;99.90;;;;;;5075289;28;20036;-74
2022/07/21 06:38:01;;;;;;;43.85;30.20;;;19.50;99.90;;;;;;5076504;28;20063;-74
2022/07/21 06:40:26;;;;;;;41.40;28.38;;;19.50;99.90;;;;;;5075112;28;20123;-74
2022/07/21 06:42:52;;;;;;;39.97;27.98;;;19.50;99.90;;;;;;5075046;28;20044;-74
2022/07/21 06:45:18;;;;;;;38.80;28.50;;;19.60;99.90;;;;;;5076265;28;20095;-74
2022/07/21 06:47:43;;;;;;;35.10;26.85;;;19.60;99.90;;;;;;5076084;28;20093;-74
2022/07/21 06:50:10;;;;;;;38.38;27.90;;;19.60;99.90;;;;;;5076482;28;20064;-74
2022/07/21 06:52:36;;;;;;;43.92;28.40;;;19.60;99.90;;;;;;5076173;28;20143;-74
2022/07/21 06:55:04;;;;;;;36.28;27.80;;;19.80;99.90;;;;;;5075123;28;20494;-74
2022/07/21 06:57:29;;;;;;;38.03;27.67;;;19.70;99.90;;;;;;5076264;28;20051;-74
2022/07/21 06:59:55;;;;;;;37.22;27.33;;;19.80;99.90;;;;;;5075090;28;20036;-75
2022/07/21 07:02:21;;;;;;;39.55;27.52;;;19.90;99.90;;;;;;5077914;28;20389;-73
2022/07/21 07:04:46;;;;;;;36.15;26.73;;;19.90;99.90;;;;;;5083395;28;20051;-73
2022/07/21 07:07:12;;;;;;;36.33;25.92;;;19.90;99.90;;;;;;5075767;28;20119;-72
2022/07/21 07:09:38;;;;;;;33.05;25.88;;;19.80;99.90;;;;;;5075656;28;20040;-74
2022/07/21 07:12:05;;;;;;;34.70;26.83;;;19.80;99.90;;;;;;5074163;28;20101;-73
2022/07/21 07:14:32;;;;;;;36.55;27.25;;;19.80;99.90;;;;;;5075610;28;20055;-73
2022/07/21 07:16:58;;;;;;;38.10;27.98;;;19.80;99.90;;;;;;5075736;28;20044;-73
2022/07/21 07:19:24;;;;;;;32.75;26.55;;;19.70;99.90;;;;;;5075437;28;20488;-73
2022/07/21 07:21:50;;;;;;;36.67;28.00;;;19.80;99.90;;;;;;5075438;28;20048;-73
2022/07/21 07:24:16;;;;;;;35.35;26.20;;;19.70;99.90;;;;;;5075317;28;20135;-73
2022/07/21 07:26:41;;;;;;;34.15;27.10;;;19.80;99.90;;;;;;5075696;28;20090;-73
2022/07/21 07:29:08;;;;;;;36.78;25.67;;;19.80;99.90;;;;;;5074278;28;20067;-73
2022/07/21 07:31:34;;;;;;;32.95;24.65;;;19.80;99.90;;;;;;5075543;28;20040;-73
2022/07/21 07:34:00;;;;;;;30.48;24.70;;;19.80;99.90;;;;;;5075407;28;20044;-74
2022/07/21 07:36:27;;;;;;;30.92;24.05;;;19.70;99.90;;;;;;5075264;28;20040;-74
2022/07/21 07:38:54;;;;;;;33.72;25.27;;;19.60;99.90;;;;;;5075338;28;20072;-73
2022/07/21 07:41:20;;;;;;;36.95;24.83;;;19.70;99.90;;;;;;5074112;28;20522;-74
2022/07/21 07:43:46;;;;;;;33.85;24.08;;;19.60;99.90;;;;;;5073931;28;20059;-74
2022/07/21 07:46:12;;;;;;;33.90;23.48;;;19.70;99.90;;;;;;5073281;28;20124;-74
2022/07/21 07:48:40;;;;;;;35.03;24.67;;;19.80;99.90;;;;;;5073755;28;20044;-74
2022/07/21 07:51:06;;;;;;;33.30;25.17;;;19.90;99.90;;;;;;5074838;28;20484;-74
2022/07/21 07:53:35;;;;;;;31.40;24.85;;;19.90;99.90;;;;;;5073641;28;20052;-74
2022/07/21 07:56:00;;;;;;;36.58;25.08;;;20.00;99.90;;;;;;5074961;28;20072;-74
2022/07/21 07:58:26;;;;;;;34.45;26.08;;;20.10;99.90;;;;;;5077025;28;20078;-74
2022/07/21 08:00:52;;;;;;;32.55;24.02;;;20.10;99.90;;;;;;5083497;28;20369;-74
2022/07/21 08:03:18;;;;;;;35.65;26.60;;;20.20;99.90;;;;;;5074877;28;20572;-74
2022/07/21 08:05:43;;;;;;;35.05;24.85;;;20.30;99.90;;;;;;5074807;28;20040;-74
2022/07/21 08:08:09;;;;;;;33.10;25.42;;;20.40;99.90;;;;;;5074674;28;20503;-74
2022/07/21 08:10:35;;;;;;;31.63;24.63;;;20.40;99.90;;;;;;5074797;28;20071;-74
2022/07/21 08:13:01;;;;;;;30.05;23.17;;;20.50;99.90;;;;;;5074660;28;20048;-74
2022/07/21 08:15:27;;;;;;;28.30;22.00;;;20.40;99.90;;;;;;5073419;28;20369;-74
2022/07/21 08:17:53;;;;;;;30.58;21.27;;;20.20;99.90;;;;;;5074329;28;20114;-75
2022/07/21 08:20:19;;;;;;;26.38;21.80;;;20.10;99.90;;;;;;5073062;28;20133;-75
2022/07/21 08:22:44;;;;;;;28.33;22.63;;;20.20;99.90;;;;;;5074178;28;20056;-74
2022/07/21 08:25:10;;;;;;;32.90;25.08;;;20.00;99.90;;;;;;5092369;28;20051;-74
2022/07/21 08:27:38;;;;;;;33.42;27.05;;;19.90;99.90;;;;;;5093196;28;20044;-74
2022/07/21 08:30:04;;;;;;;35.92;27.10;;;19.90;99.90;;;;;;5088132;28;20119;-74
2022/07/21 08:32:30;;;;;;;36.60;27.85;;;19.90;99.90;;;;;;5073109;28;20543;-75
2022/07/21 08:34:55;;;;;;;33.10;27.00;;;19.80;99.90;;;;;;5074010;28;20032;-74
2022/07/21 08:37:21;;;;;;;37.72;27.35;;;19.70;99.90;;;;;;5084006;28;20113;-75
2022/07/21 08:39:47;;;;;;;37.80;29.40;;;19.70;99.90;;;;;;5088233;28;20067;-74
2022/07/21 08:42:14;;;;;;;39.38;29.40;;;19.70;99.90;;;;;;5094376;28;20032;-74
2022/07/21 08:44:40;;;;;;;38.33;29.05;;;19.60;99.90;;;;;;5092953;28;20048;-75
2022/07/21 08:47:06;;;;;;;36.97;29.15;;;19.60;99.90;;;;;;5094279;28;20047;-74
2022/07/21 08:49:35;;;;;;;38.00;28.92;;;19.60;99.90;;;;;;5093004;28;20052;-74
2022/07/21 08:52:02;;;;;;;39.90;28.95;;;19.80;99.90;;;;;;5093545;28;20499;-74
2022/07/21 08:54:28;;;;;;;37.20;28.38;;;19.70;99.90;;;;;;5090845;28;20483;-74
2022/07/21 08:56:54;;;;;;;36.55;28.20;;;19.80;99.90;;;;;;5092152;28;20097;-74
2022/07/21 08:59:22;;;;;;;37.47;29.58;;;19.80;99.90;;;;;;5088018;28;20043;-74
2022/07/21 09:01:48;;;;;;;38.88;29.35;;;19.80;99.90;;;;;;5078575;28;20056;-75
2022/07/21 09:04:31;;;;;;;39.58;28.63;;;19.90;99.90;;;;;;5073493;28;20044;-75
2022/07/21 09:07:03;;;;;;;37.15;28.33;;;19.90;99.90;;;;;;5073783;28;20071;-75
2022/07/21 09:09:30;;;;;;;40.83;29.27;;;20.00;99.90;;;;;;5079530;28;20052;-74
2022/07/21 09:11:57;;;;;;;36.72;28.52;;;19.90;99.90;;;;;;5077404;28;20083;-74
2022/07/21 09:14:28;;;;;;;35.80;28.15;;;19.90;99.90;;;;;;5072114;28;20484;-74
2022/07/21 09:16:57;;;;;;;36.97;29.10;;;19.90;99.90;;;;;;5072394;28;20054;-74
2022/07/21 09:19:31;;;;;;;39.03;29.02;;;20.00;99.90;;;;;;5073388;28;20294;-74
2022/07/21 09:22:00;;;;;;;37.45;29.02;;;20.00;99.90;;;;;;5073335;28;20106;-75
2022/07/21 09:24:37;;;;;;;40.30;28.75;;;20.00;99.90;;;;;;5073597;28;20053;-74
2022/07/21 09:27:08;;;;;;;37.95;28.42;;;20.10;99.90;;;;;;5073373;28;20041;-74
2022/07/21 09:29:56;;;;;;;36.00;29.80;;;20.20;99.90;;;;;;5078982;28;20048;-75
2022/07/21 09:32:36;;;;;;;37.63;28.70;;;20.20;99.90;;;;;;5066661;28;20092;-74
2022/07/21 09:35:13;;;;;;;37.20;29.50;;;20.30;99.90;;;;;;5073230;28;20430;-75
2022/07/21 09:37:39;;;;;;;38.42;29.20;;;20.20;99.90;;;;;;5071878;28;20131;-74
2022/07/21 09:40:11;;;;;;;40.80;31.48;;;20.30;99.90;;;;;;5083268;28;20032;-74
2022/07/21 09:42:42;;;;;;;37.78;31.08;;;20.30;99.90;;;;;;5073413;28;20040;-74
2022/07/21 09:45:13;;;;;;;39.40;30.95;;;20.40;99.90;;;;;;5071929;28;20048;-74
2022/07/21 09:47:40;;;;;;;41.67;33.00;;;20.50;99.90;;;;;;5073165;28;20040;-74
2022/07/21 09:50:09;;;;;;;41.97;32.40;;;20.60;99.90;;;;;;5072134;28;20072;-74
2022/07/21 09:52:37;;;;;;;42.65;33.30;;;20.60;99.90;;;;;;5071823;28;20048;-74
2022/07/21 09:55:04;;;;;;;44.33;33.90;;;20.80;99.90;;;;;;5072918;28;20056;-75
2022/07/21 09:57:30;;;;;;;44.63;33.33;;;20.70;99.90;;;;;;5072859;28;20510;-75
2022/07/21 09:59:56;;;;;;;42.40;32.95;;;20.70;99.90;;;;;;5081799;28;20040;-74
2022/07/21 10:02:27;;;;;;;45.42;34.65;;;20.70;99.90;;;;;;5075891;28;20044;-75
2022/07/21 10:05:04;;;;;;;44.53;33.95;;;20.70;99.90;;;;;;5072354;28;20041;-74
2022/07/21 10:07:30;;;;;;;45.17;33.53;;;20.60;99.90;;;;;;5071566;28;20441;-74
2022/07/21 10:09:57;;;;;;;42.90;32.28;;;20.70;99.90;;;;;;5075841;28;20036;-74
2022/07/21 10:12:26;;;;;;;40.13;32.65;;;20.70;99.90;;;;;;5077083;28;20119;-74
2022/07/21 10:14:51;;;;;;;44.83;34.35;;;20.70;99.90;;;;;;5077065;28;20052;-74
2022/07/21 10:17:19;;;;;;;46.50;35.22;;;20.60;99.90;;;;;;5076923;28;20388;-74
2022/07/21 10:20:06;;;;;;;46.60;34.40;;;20.60;99.90;;;;;;5076246;28;20049;-74
2022/07/21 10:23:09;;;;;;;44.72;33.75;;;20.60;99.90;;;;;;5075277;28;20052;-74
2022/07/21 10:25:36;;;;;;;;;;;20.60;99.90;;;;;;5075989;28;20132;-74
2022/07/21 10:28:11;;;;;;;44.63;34.13;;;20.60;99.90;;;;;;5076577;28;19939;-84
2022/07/21 10:30:45;;;;;;;44.28;33.90;;;20.60;99.90;;;;;;5074874;28;20079;-74
2022/07/21 10:33:13;;;;;;;47.03;36.13;;;20.60;99.90;;;;;;5075152;28;20044;-74
2022/07/21 10:35:44;;;;;;;46.08;34.45;;;20.70;99.90;;;;;;5076623;28;20123;-74
2022/07/21 10:38:28;;;;;;;44.37;35.23;;;20.70;99.90;;;;;;5081428;28;20089;-74
2022/07/21 10:40:55;;;;;;;47.55;35.17;;;20.70;99.90;;;;;;5078357;28;20055;-74
2022/07/21 10:43:23;;;;;;;50.38;36.72;;;20.70;99.90;;;;;;5076428;28;20119;-74
2022/07/21 10:45:50;;;;;;;47.92;34.67;;;20.70;99.90;;;;;;5076108;28;20610;-74
2022/07/21 10:48:48;;;;;;;46.10;32.25;;;20.70;99.90;;;;;;5076381;28;20119;-74
2022/07/21 10:51:15;;;;;;;25.48;22.40;;;20.70;99.90;;;;;;5075065;28;20056;-74
2022/07/21 10:53:44;;;;;;;28.48;20.60;;;20.60;99.90;;;;;;5076045;28;20043;-74
2022/07/21 10:56:28;;;;;;;22.38;18.00;;;20.50;99.90;;;;;;5074679;28;20060;-74
2022/07/21 10:58:54;;;;;;;21.38;17.63;;;20.50;99.90;;;;;;5076206;28;20403;-73
2022/07/21 11:01:27;;;;;;;19.25;15.70;;;20.40;99.90;;;;;;5075921;28;20505;-74
2022/07/21 11:04:09;;;;;;;17.92;15.75;;;20.30;99.90;;;;;;5074925;28;20076;-74
2022/07/21 11:06:40;;;;;;;19.52;15.25;;;20.30;99.90;;;;;;5075611;28;20040;-74
2022/07/21 11:09:10;;;;;;;17.35;12.35;;;20.40;99.90;;;;;;5075648;28;20377;-74
2022/07/21 11:11:58;;;;;;;15.07;11.07;;;20.40;99.90;;;;;;5075762;28;20033;-73
2022/07/21 11:14:42;;;;;;;17.45;11.50;;;20.60;99.90;;;;;;5075819;28;20049;-73
2022/07/21 11:17:25;;;;;;;13.10;9.02;;;20.70;99.90;;;;;;5075471;28;20499;-73
2022/07/21 11:19:52;;;;;;;15.40;9.10;;;20.70;99.90;;;;;;5075469;28;20050;-73
2022/07/21 11:22:20;;;;;;;14.38;9.38;;;20.70;99.90;;;;;;5075084;28;20048;-73
2022/07/21 11:24:56;;;;;;;17.23;9.45;;;20.60;99.90;;;;;;5075353;28;20044;-74
2022/07/21 11:27:24;;;;;;;12.23;8.95;;;20.60;99.90;;;;;;5075696;28;20189;-73
2022/07/21 11:29:52;;;;;;;13.88;9.10;;;20.50;99.90;;;;;;5075315;28;20403;-74
2022/07/21 11:32:19;;;;;;;12.82;7.72;;;20.50;99.90;;;;;;5075215;28;20423;-73
2022/07/21 11:34:50;;;;;;;14.13;8.73;;;20.50;99.90;;;;;;5074313;28;20040;-73
2022/07/21 11:37:29;;;;;;;14.93;9.98;;;20.50;99.90;;;;;;5075189;28;20377;-73
2022/07/21 11:39:55;;;;;;;14.82;8.82;;;20.40;99.90;;;;;;5075225;28;20549;-73
2022/07/21 11:42:21;;;;;;;14.63;9.52;;;20.30;99.90;;;;;;5075264;28;20045;-73
2022/07/21 11:44:46;;;;;;;14.27;8.70;;;20.30;99.90;;;;;;5075435;28;20105;-73
2022/07/21 11:47:14;;;;;;;15.57;8.45;;;20.30;99.90;;;;;;5074157;28;20044;-73
2022/07/21 11:49:42;;;;;;;10.60;8.43;;;20.20;99.90;;;;;;5074890;28;20545;-73
2022/07/21 11:52:17;;;;;;;12.40;8.15;;;20.10;99.90;;;;;;5074905;28;20044;-73
2022/07/21 11:54:51;;;;;;;11.15;7.95;;;20.10;99.90;;;;;;5073922;28;20514;-73
2022/07/21 11:57:19;;;;;;;10.77;8.05;;;20.00;99.90;;;;;;5074978;28;20041;-73
2022/07/21 11:59:46;;;;;;;13.38;8.07;;;20.00;99.90;;;;;;5074834;28;20538;-73
2022/07/21 12:02:14;;;;;;;10.27;8.25;;;20.10;99.90;;;;;;5073377;28;20040;-73
2022/07/21 12:04:45;;;;;;;10.50;8.35;;;20.10;99.90;;;;;;5074711;28;20459;-73
2022/07/21 12:07:19;;;;;;;9.68;7.65;;;20.10;99.90;;;;;;5073274;28;20048;-74
2022/07/21 12:09:47;;;;;;;11.02;7.38;;;20.10;99.90;;;;;;5074444;28;20051;-74
2022/07/21 12:12:13;;;;;;;11.77;8.75;;;20.10;99.90;;;;;;5073391;28;20036;-74
2022/07/21 12:14:50;;;;;;;9.70;7.68;;;20.20;99.90;;;;;;5074849;28;20094;-74
2022/07/21 12:17:30;;;;;;;11.88;8.98;;;20.20;99.90;;;;;;5075433;28;20102;-74
2022/07/21 12:19:56;;;;;;;10.27;7.50;;;20.30;99.90;;;;;;5085919;28;20505;-74
2022/07/21 12:22:42;;;;;;;12.52;7.80;;;20.40;99.90;;;;;;5094478;28;20044;-74
2022/07/21 12:25:09;;;;;;;11.38;7.28;;;20.40;99.90;;;;;;5094960;28;20059;-74
2022/07/21 12:27:37;;;;;;;8.85;6.88;;;20.50;99.90;;;;;;5094428;28;20090;-74
2022/07/21 12:30:04;;;;;;;8.43;6.63;;;20.50;99.90;;;;;;5093318;28;20044;-74
2022/07/21 12:32:43;;;;;;;9.35;7.15;;;20.60;99.90;;;;;;5093547;28;20080;-74
2022/07/21 12:35:24;;;;;;;8.50;6.57;;;20.70;99.90;;;;;;5093539;28;20044;-74